Latest Weather Observations for Green Cape

IDN60801

Issued at 8:12 pm EST Wednesday 12 August 2020 (issued every 10 minutes, with the page automatically refreshed every 10 minutes)

About weather observations | Map of weather stations | Latest weather observations for NSW | Other Formats
Station Details ID: 069137 Name: GREEN CAPE AWS Lat: -37.26 Lon: 150.05 Height: 19.4 m
Data from the previous 72 hours. | See also: Recent months at Green Cape
Date/Time
EST
Temp
°C
App
Temp
°C
Dew
Point
°C
Rel
Hum
%
Delta-T
°C
Wind Press
QNH
hPa
Press
MSL
hPa
Rain since
9am
mm
Dir  Spd
km/h
Gust
km/h
Spd
kts
Gust
kts
12/08:00pm 13.5 10.8 8.8 73 2.4 NNW 13 13 7 7 1010.9 1010.9 0.0
12/07:30pm 13.1 11.8 10.1 82 1.5 N 7 13 4 7 1010.9 1010.9 0.0
12/07:00pm 13.5 12.7 9.7 78 2.0 N 4 6 2 3 1010.8 1010.8 0.0
12/06:30pm 13.2 12.0 9.5 78 1.9 N 6 9 3 5 1010.7 1010.7 0.0
12/06:00pm 13.6 11.0 10.6 82 1.6 N 15 17 8 9 1010.4 1010.4 0.0
12/05:30pm 13.8 11.1 10.4 80 1.8 N 15 19 8 10 1010.4 1010.4 0.0
12/05:00pm 13.8 13.1 10.0 78 2.0 N 4 19 2 10 1010.3 1010.3 0.0
12/04:30pm 14.4 13.0 10.8 79 1.9 N 9 11 5 6 1010.1 1010.1 0.0
12/04:00pm 14.4 12.8 10.2 76 2.2 N 9 11 5 6 1010.2 1010.2 0.0
12/03:30pm 14.3 11.9 9.9 75 2.3 N 13 15 7 8 1010.2 1010.2 0.0
12/03:00pm 14.4 11.9 9.8 74 2.4 N 13 17 7 9 1010.3 1010.3 0.0
12/02:30pm 14.8 11.8 10.6 76 2.2 NNE 17 19 9 10 1010.6 1010.6 0.0
12/02:00pm 15.3 12.1 10.1 71 2.7 NNE 17 20 9 11 1010.9 1010.9 0.0
12/01:30pm 16.8 14.9 10.4 66 3.4 NE 11 13 6 7 1010.8 1010.8 0.0
12/01:00pm 16.3 16.5 10.6 69 3.0 CALM 0 2 0 1 1011.2 1011.2 0.0
12/12:30pm 16.1 15.2 10.8 71 2.8 SW 6 9 3 5 1011.5 1011.5 0.0
12/12:00pm 14.8 13.8 8.7 67 3.1 W 4 6 2 3 1012.5 1012.5 0.0
12/11:30am 14.4 11.8 9.2 71 2.7 W 13 15 7 8 1013.2 1013.2 0.0
12/11:00am 14.1 11.7 8.5 69 2.8 W 11 15 6 8 1013.7 1013.7 0.0
12/10:30am 14.6 13.5 9.8 73 2.5 N 6 9 3 5 1014.0 1014.0 0.0
12/10:00am 13.8 12.3 8.6 71 2.6 NNW 6 9 3 5 1014.2 1014.2 0.0
12/09:30am 12.5 10.3 7.8 73 2.3 WSW 9 9 5 5 1014.0 1014.0 0.0
12/09:00am 12.4 11.1 9.2 81 1.6 NNW 6 9 3 5 1014.4 1014.4 0.0
12/08:30am 10.8 8.4 8.6 86 1.1 WNW 11 15 6 8 1014.5 1014.5 0.0
12/08:00am 11.0 8.5 8.4 84 1.3 W 11 15 6 8 1014.3 1014.3 0.0
12/07:30am 11.9 8.5 9.3 84 1.3 N 17 20 9 11 1013.8 1013.8 0.0
12/07:00am 11.5 8.8 8.9 84 1.3 N 13 15 7 8 1013.7 1013.7 0.0
12/06:30am 11.9 8.9 9.3 84 1.3 N 15 19 8 10 1013.7 1013.7 0.0
12/06:00am 11.8 9.2 9.2 84 1.3 N 13 17 7 9 1013.7 1013.7 0.0
12/05:30am 11.8 7.5 9.5 86 1.2 N 22 28 12 15 1013.8 1013.8 0.0
12/05:00am 12.4 7.6 10.3 87 1.1 N 26 32 14 17 1013.4 1013.4 0.0
12/04:30am 12.6 7.4 10.3 86 1.2 N 28 35 15 19 1013.3 1013.3 0.0
12/04:00am 12.9 6.8 10.6 86 1.2 N 33 39 18 21 1013.4 1013.4 0.0
12/03:30am 12.9 7.8 10.6 86 1.2 N 28 30 15 16 1013.5 1013.5 0.0
12/03:00am 12.9 7.4 10.4 85 1.3 N 30 35 16 19 1013.8 1013.8 0.0
12/02:30am 12.9 6.0 10.3 84 1.3 N 37 43 20 23 1013.8 1013.8 0.0
12/02:00am 13.0 5.8 10.4 84 1.3 N 39 46 21 25 1014.3 1014.3 0.0
12/01:30am 12.9 7.7 10.4 85 1.3 N 28 37 15 20 1014.8 1014.8 0.0
12/01:00am 13.2 6.9 10.9 86 1.2 N 35 43 19 23 1014.9 1014.9 0.0
12/12:30am 13.1 7.4 11.2 88 1.0 N 32 37 17 20 1014.8 1014.8 0.0
12/12:00am 12.9 9.4 10.8 87 1.1 N 20 24 11 13 1015.3 1015.3 0.0
 
Date/Time
EST
Temp
°C
App
Temp
°C
Dew
Point
°C
Rel
Hum
%
Delta-T
°C
Wind Press
QNH
hPa
Press
MSL
hPa
Rain since
9am
mm
Dir  Spd
km/h
Gust
km/h
Spd
kts
Gust
kts
11/11:30pm 13.0 10.4 10.7 86 1.2 N 15 20 8 11 1015.9 1015.9 0.0
11/11:00pm 13.1 10.5 10.8 86 1.2 N 15 19 8 10 1015.9 1015.9 0.0
11/10:30pm 13.2 10.7 10.9 86 1.2 NNW 15 20 8 11 1016.2 1016.2 0.0
11/10:00pm 13.1 10.1 10.6 85 1.3 N 17 20 9 11 1016.3 1016.3 0.0
11/09:30pm 13.1 9.6 10.3 83 1.5 N 19 20 10 11 1016.7 1016.7 0.0
11/09:00pm 13.5 10.4 10.3 81 1.7 N 17 22 9 12 1017.0 1017.0 0.0
11/08:30pm 14.1 8.6 10.5 79 1.9 NNE 30 35 16 19 1016.9 1016.9 0.0
11/08:00pm 14.2 9.5 10.6 79 1.9 NNE 26 32 14 17 1016.9 1016.9 0.0
11/07:30pm 14.2 9.4 10.4 78 2.0 N 26 30 14 16 1017.3 1017.3 0.0
11/07:00pm 14.2 10.1 10.2 77 2.1 N 22 26 12 14 1017.3 1017.3 0.0
11/06:30pm 13.8 9.2 9.6 76 2.2 N 24 28 13 15 1017.2 1017.2 0.0
11/06:00pm 13.9 8.9 9.7 76 2.2 NNE 26 32 14 17 1016.6 1016.6 0.0
11/05:30pm 13.9 9.6 9.5 75 2.3 NNE 22 28 12 15 1016.6 1016.6 0.0
11/05:00pm 14.1 9.9 9.7 75 2.3 NNE 22 30 12 16 1016.4 1016.4 0.0
11/04:30pm 14.5 10.0 9.9 74 2.4 NNE 24 28 13 15 1016.4 1016.4 0.0
11/04:00pm 14.6 9.2 9.6 72 2.6 NNE 28 32 15 17 1016.4 1016.4 0.0
11/03:30pm 14.4 8.6 9.6 73 2.5 NNE 30 35 16 19 1016.6 1016.6 0.0
11/03:00pm 14.8 9.0 9.4 70 2.8 NNE 30 35 16 19 1016.4 1016.4 0.0
11/02:30pm 14.9 9.2 9.7 71 2.7 NNE 30 35 16 19 1016.6 1016.6 0.0
11/02:00pm 14.9 9.9 9.5 70 2.8 N 26 30 14 16 1016.8 1016.8 0.0
11/01:30pm 15.1 10.0 9.2 68 3.0 N 26 32 14 17 1017.3 1017.3 0.0
11/01:00pm 15.0 9.9 9.1 68 3.0 N 26 30 14 16 1017.5 1017.5 0.0
11/12:30pm 15.0 9.4 8.7 66 3.2 N 28 33 15 18 1017.9 1017.9 0.0
11/12:00pm 15.1 9.8 8.6 65 3.3 N 26 30 14 16 1018.6 1018.6 0.0
11/11:30am 15.3 9.6 8.3 63 3.5 N 28 35 15 19 1019.1 1019.1 0.0
11/11:00am 15.3 9.6 8.3 63 3.5 N 28 35 15 19 1019.5 1019.5 0.0
11/10:30am 15.2 9.8 8.2 63 3.5 N 26 32 14 17 1019.9 1019.9 0.0
11/10:00am 14.8 9.8 8.1 64 3.3 N 24 30 13 16 1020.2 1020.2 0.0
11/09:30am 14.4 11.2 8.4 67 3.0 N 15 24 8 13 1020.4 1020.4 0.0
11/09:00am 13.4 9.6 7.4 67 2.9 N 17 19 9 10 1020.5 1020.5 0.0
11/08:30am 13.0 9.4 6.8 66 3.0 N 15 19 8 10 1020.7 1020.7 0.0
11/08:00am 10.9 9.0 6.6 75 2.0 WNW 6 9 3 5 1020.9 1020.9 0.0
11/07:30am 9.8 7.7 5.8 76 1.8 NW 6 11 3 6 1021.1 1021.1 0.0
11/07:00am 9.2 5.7 3.6 68 2.4 NW 11 13 6 7 1020.8 1020.8 0.0
11/06:30am 9.5 6.1 4.1 69 2.4 NNW 11 13 6 7 1020.4 1020.4 0.0
11/06:00am 10.0 5.8 4.0 66 2.6 NNW 15 19 8 10 1020.3 1020.3 0.0
11/05:30am 10.4 6.9 3.7 63 2.9 NW 11 17 6 9 1020.2 1020.2 0.0
11/05:00am 10.4 6.6 3.9 64 2.9 NW 13 15 7 8 1020.3 1020.3 0.0
11/04:30am 10.6 7.2 3.9 63 3.0 NW 11 13 6 7 1020.4 1020.4 0.0
11/04:00am 10.8 7.8 4.3 64 2.9 NW 9 13 5 7 1020.6 1020.6 0.0
11/03:30am 11.0 8.2 5.1 67 2.7 WNW 9 13 5 7 1020.8 1020.8 0.0
11/03:00am 11.3 8.8 5.0 65 2.9 NW 7 7 4 4 1021.0 1021.0 0.0
11/02:30am 11.5 9.2 5.8 68 2.7 NW 7 11 4 6 1021.2 1021.2 0.0
11/02:00am 11.7 9.6 6.6 71 2.4 WNW 7 13 4 7 1021.6 1021.6 0.0
11/01:30am 11.9 9.3 6.2 68 2.7 WNW 9 15 5 8 1021.7 1021.7 0.0
11/01:00am 11.7 9.4 5.6 66 2.8 WNW 7 9 4 5 1021.6 1021.6 0.0
11/12:30am 11.8 9.6 5.4 65 3.0 WNW 6 7 3 4 1021.5 1021.5 0.0
11/12:00am 11.7 10.0 6.0 68 2.7 WNW 4 6 2 3 1021.7 1021.7 0.0
 
Date/Time
EST
Temp
°C
App
Temp
°C
Dew
Point
°C
Rel
Hum
%
Delta-T
°C
Wind Press
QNH
hPa
Press
MSL
hPa
Rain since
9am
mm
Dir  Spd
km/h
Gust
km/h
Spd
kts
Gust
kts
10/11:30pm 11.8 9.9 6.7 71 2.4 WNW 6 7 3 4 1021.8 1021.8 0.0
10/11:00pm 12.1 10.3 7.2 72 2.4 SE 6 9 3 5 1021.9 1021.9 0.0
10/10:30pm 12.4 10.4 6.9 69 2.6 SE 7 11 4 6 1022.0 1022.0 0.0
10/10:00pm 12.3 9.9 7.0 70 2.5 ESE 9 13 5 7 1022.2 1022.2 0.0
10/09:30pm 12.3 10.8 6.8 69 2.6 SE 4 9 2 5 1022.4 1022.4 0.0
10/09:00pm 12.6 10.8 7.3 70 2.6 SE 6 9 3 5 1022.5 1022.5 0.0
10/08:30pm 12.6 10.6 7.3 70 2.6 ESE 7 11 4 6 1022.6 1022.6 0.0
10/08:00pm 12.6 10.3 7.5 71 2.5 SE 9 13 5 7 1022.4 1022.4 0.0
10/07:30pm 12.6 9.8 7.1 69 2.7 ESE 11 17 6 9 1022.4 1022.4 0.0
10/07:00pm 12.5 10.5 6.1 65 3.0 SE 6 11 3 6 1022.2 1022.2 0.0
10/06:30pm 12.6 9.5 7.3 70 2.6 SE 13 15 7 8 1022.0 1022.0 0.0
10/06:00pm 12.7 9.0 8.0 73 2.3 SSE 17 20 9 11 1021.7 1021.7 0.0
10/05:30pm 12.5 10.4 8.2 75 2.1 SW 9 13 5 7 1021.6 1021.6 0.0
10/05:00pm 12.6 9.6 7.9 73 2.3 WSW 13 17 7 9 1021.5 1021.5 0.0
10/04:30pm 12.5 8.9 8.2 75 2.1 SW 17 19 9 10 1021.4 1021.4 0.0
10/04:00pm 12.9 9.3 8.4 74 2.2 SSE 17 20 9 11 1021.3 1021.3 0.0
10/03:30pm 13.3 9.3 8.4 72 2.4 SSE 19 24 10 13 1021.2 1021.2 0.0
10/03:00pm 13.2 9.1 8.5 73 2.3 S 20 28 11 15 1021.5 1021.5 0.0
10/02:30pm 13.4 8.3 7.6 68 2.8 S 24 28 13 15 1021.6 1021.6 0.0
10/02:00pm 13.5 7.9 7.3 66 3.0 S 26 32 14 17 1021.7 1021.7 0.0
10/01:30pm 13.4 7.9 7.4 67 2.9 S 26 30 14 16 1021.7 1021.7 0.0
10/01:00pm 13.2 7.3 7.6 69 2.7 S 28 32 15 17 1021.8 1021.8 0.0
10/12:30pm 13.6 8.0 8.7 72 2.5 S 28 33 15 18 1022.0 1022.0 0.0
10/12:00pm 13.0 7.0 7.2 68 2.8 SSW 28 35 15 19 1022.1 1022.1 0.0
10/11:30am 13.3 6.6 7.5 68 2.8 SSW 32 35 17 19 1022.3 1022.3 0.0
10/11:00am 13.2 6.7 8.3 72 2.4 S 32 39 17 21 1022.5 1022.5 0.0
10/10:30am 13.0 6.4 7.7 70 2.6 S 32 35 17 19 1022.4 1022.4 0.0
10/10:00am 13.1 6.3 7.1 67 2.9 S 32 37 17 20 1022.4 1022.4 0.0
10/09:30am 12.9 5.9 6.9 67 2.9 S 33 39 18 21 1022.1 1022.1 0.0
10/09:00am 12.7 6.4 7.6 71 2.5 S 30 37 16 20 1022.1 1022.1 0.0
10/08:30am 12.5 5.9 7.6 72 2.4 SSW 32 37 17 20 1021.9 1021.9 0.0
10/08:00am 12.3 5.2 8.0 75 2.1 SSE 35 41 19 22 1021.6 1021.6 0.0
10/07:30am 12.0 6.4 8.7 80 1.6 SSE 28 35 15 19 1021.6 1021.6 0.0
10/07:00am 12.5 6.0 8.2 75 2.1 S 32 41 17 22 1021.1 1021.1 0.0
10/06:30am 12.3 7.0 6.6 68 2.7 SSE 24 30 13 16 1020.9 1020.9 0.0
10/06:00am 12.4 5.6 7.1 70 2.5 SSE 32 39 17 21 1020.5 1020.5 0.0
10/05:30am 12.5 6.9 7.2 70 2.6 SSE 26 33 14 18 1020.4 1020.4 0.0
10/05:00am 12.3 5.1 7.6 73 2.3 S 35 44 19 24 1019.9 1019.9 0.0
10/04:30am 12.2 5.6 8.7 79 1.7 S 33 41 18 22 1019.7 1019.7 0.0
10/04:00am 12.4 5.8 8.5 77 1.9 SSE 33 41 18 22 1019.6 1019.6 0.0
10/03:30am 12.6 5.2 8.3 75 2.1 S 37 44 20 24 1019.3 1019.3 0.0
10/03:00am 12.6 4.5 8.7 77 1.9 S 41 46 22 25 1019.2 1019.2 0.0
10/02:30am 12.7 4.7 9.0 78 1.9 S 41 46 22 25 1019.2 1019.2 0.0
10/02:00am 12.9 5.3 9.2 78 1.9 S 39 44 21 24 1019.1 1019.1 0.0
10/01:30am 12.7 5.1 9.2 79 1.8 S 39 46 21 25 1019.1 1019.1 0.0
10/01:00am 12.9 5.4 9.5 80 1.7 S 39 44 21 24 1019.1 1019.1 0.0
10/12:30am 12.9 6.2 9.7 81 1.6 SSE 35 43 19 23 1019.2 1019.2 0.0
10/12:00am 13.2 6.2 10.0 81 1.6 SSE 37 43 20 23 1019.5 1019.5 0.0
 
Date/Time
EST
Temp
°C
App
Temp
°C
Dew
Point
°C
Rel
Hum
%
Delta-T
°C
Wind Press
QNH
hPa
Press
MSL
hPa
Rain since
9am
mm
Dir  Spd
km/h
Gust
km/h
Spd
kts
Gust
kts
09/11:30pm 13.6 7.2 9.3 75 2.2 SSE 33 43 18 23 1019.4 1019.4 0.0
09/11:00pm 13.5 6.3 9.0 74 2.3 SSE 37 44 20 24 1019.6 1019.6 0.0
09/10:30pm 13.5 6.4 9.7 78 1.9 SSE 37 44 20 24 1019.5 1019.5 0.0
09/10:00pm 13.4 7.0 9.5 77 2.0 SSE 33 39 18 21 1019.7 1019.7 0.0
09/09:30pm 13.4 7.0 8.7 73 2.4 SSE 32 37 17 20 1019.6 1019.6 0.0
09/09:00pm 13.2 4.7 8.7 74 2.2 SSE 43 48 23 26 1019.4 1019.4 0.0
09/08:30pm 13.4 5.2 8.3 71 2.5 SSE 41 46 22 25 1019.1 1019.1 0.0

Other formats

Comma delimited format used in spreadsheet applications
http://www.bom.gov.au/fwo/IDN60801/IDN60801.94934.axf

JavaScript Object Notation format (JSON) in row-major order
http://www.bom.gov.au/fwo/IDN60801/IDN60801.94934.json

Data quality

Most of these data are generated automatically and are frequently updated. Quality checks on data are not normally performed. It is possible for incorrect values to appear. Refer to information at About Latest Weather Observations and please check the disclaimer before using these data.